sensor_id;sensor_type;location;lat;lon;timestamp;P1;durP1;ratioP1;P2;durP2;ratioP2
21107;SDS011;10712;52.944;9.098;2022-09-01T00:01:44;0.68;;;0.40;;
21107;SDS011;10712;52.944;9.098;2022-09-01T00:04:17;0.65;;;0.40;;
21107;SDS011;10712;52.944;9.098;2022-09-01T00:06:47;1.10;;;0.60;;
21107;SDS011;10712;52.944;9.098;2022-09-01T00:09:14;0.60;;;0.50;;
21107;SDS011;10712;52.944;9.098;2022-09-01T00:11:45;1.63;;;0.47;;
21107;SDS011;10712;52.944;9.098;2022-09-01T00:14:16;1.00;;;0.43;;
21107;SDS011;10712;52.944;9.098;2022-09-01T00:16:45;0.95;;;0.70;;
21107;SDS011;10712;52.944;9.098;2022-09-01T00:19:11;2.97;;;0.60;;
21107;SDS011;10712;52.944;9.098;2022-09-01T00:21:39;0.28;;;0.28;;
21107;SDS011;10712;52.944;9.098;2022-09-01T00:24:08;1.00;;;0.50;;
21107;SDS011;10712;52.944;9.098;2022-09-01T00:26:36;1.98;;;0.80;;
21107;SDS011;10712;52.944;9.098;2022-09-01T00:29:03;0.98;;;0.50;;
21107;SDS011;10712;52.944;9.098;2022-09-01T00:31:30;1.00;;;0.60;;
21107;SDS011;10712;52.944;9.098;2022-09-01T00:33:56;0.40;;;0.40;;
21107;SDS011;10712;52.944;9.098;2022-09-01T00:36:23;1.30;;;0.50;;
21107;SDS011;10712;52.944;9.098;2022-09-01T00:38:49;0.63;;;0.60;;
21107;SDS011;10712;52.944;9.098;2022-09-01T00:41:18;0.50;;;0.40;;
21107;SDS011;10712;52.944;9.098;2022-09-01T00:43:50;1.20;;;0.43;;
21107;SDS011;10712;52.944;9.098;2022-09-01T00:48:55;0.50;;;0.43;;
21107;SDS011;10712;52.944;9.098;2022-09-01T00:51:29;3.15;;;0.50;;
21107;SDS011;10712;52.944;9.098;2022-09-01T00:53:58;0.38;;;0.30;;
21107;SDS011;10712;52.944;9.098;2022-09-01T00:56:27;0.30;;;0.30;;
21107;SDS011;10712;52.944;9.098;2022-09-01T00:58:56;0.70;;;0.50;;
21107;SDS011;10712;52.944;9.098;2022-09-01T01:01:23;2.63;;;0.65;;
21107;SDS011;10712;52.944;9.098;2022-09-01T01:03:49;0.50;;;0.50;;
21107;SDS011;10712;52.944;9.098;2022-09-01T01:06:15;0.90;;;0.47;;
21107;SDS011;10712;52.944;9.098;2022-09-01T01:08:44;0.68;;;0.50;;
21107;SDS011;10712;52.944;9.098;2022-09-01T01:11:24;0.38;;;0.30;;
21107;SDS011;10712;52.944;9.098;2022-09-01T01:13:55;0.57;;;0.40;;
21107;SDS011;10712;52.944;9.098;2022-09-01T01:16:34;0.35;;;0.30;;
21107;SDS011;10712;52.944;9.098;2022-09-01T01:19:00;2.85;;;0.50;;
21107;SDS011;10712;52.944;9.098;2022-09-01T01:21:30;0.85;;;0.50;;
21107;SDS011;10712;52.944;9.098;2022-09-01T01:24:22;0.80;;;0.60;;
21107;SDS011;10712;52.944;9.098;2022-09-01T01:26:50;4.25;;;0.38;;
21107;SDS011;10712;52.944;9.098;2022-09-01T01:29:17;3.65;;;0.65;;
21107;SDS011;10712;52.944;9.098;2022-09-01T01:31:44;0.50;;;0.40;;
21107;SDS011;10712;52.944;9.098;2022-09-01T01:34:14;0.43;;;0.43;;
21107;SDS011;10712;52.944;9.098;2022-09-01T01:36:42;0.40;;;0.30;;
21107;SDS011;10712;52.944;9.098;2022-09-01T01:39:19;0.40;;;0.40;;
21107;SDS011;10712;52.944;9.098;2022-09-01T01:41:51;0.40;;;0.40;;
21107;SDS011;10712;52.944;9.098;2022-09-01T01:44:21;1.70;;;0.60;;
21107;SDS011;10712;52.944;9.098;2022-09-01T01:49:22;1.35;;;0.63;;
21107;SDS011;10712;52.944;9.098;2022-09-01T01:51:51;0.80;;;0.60;;
21107;SDS011;10712;52.944;9.098;2022-09-01T01:54:21;0.88;;;0.70;;
21107;SDS011;10712;52.944;9.098;2022-09-01T01:56:50;0.63;;;0.50;;
21107;SDS011;10712;52.944;9.098;2022-09-01T01:59:15;1.25;;;0.50;;
21107;SDS011;10712;52.944;9.098;2022-09-01T02:01:43;0.47;;;0.47;;
21107;SDS011;10712;52.944;9.098;2022-09-01T02:04:15;0.65;;;0.57;;
21107;SDS011;10712;52.944;9.098;2022-09-01T02:06:45;1.95;;;0.50;;
21107;SDS011;10712;52.944;9.098;2022-09-01T02:09:13;1.38;;;0.45;;
21107;SDS011;10712;52.944;9.098;2022-09-01T02:11:43;0.50;;;0.50;;
21107;SDS011;10712;52.944;9.098;2022-09-01T02:14:11;0.98;;;0.70;;
21107;SDS011;10712;52.944;9.098;2022-09-01T02:16:39;0.77;;;0.50;;
21107;SDS011;10712;52.944;9.098;2022-09-01T02:19:06;0.65;;;0.55;;
21107;SDS011;10712;52.944;9.098;2022-09-01T02:21:36;0.70;;;0.45;;
21107;SDS011;10712;52.944;9.098;2022-09-01T02:24:11;1.38;;;0.65;;
21107;SDS011;10712;52.944;9.098;2022-09-01T02:26:38;1.98;;;0.50;;
21107;SDS011;10712;52.944;9.098;2022-09-01T02:29:13;0.43;;;0.43;;
21107;SDS011;10712;52.944;9.098;2022-09-01T02:31:49;0.30;;;0.30;;
21107;SDS011;10712;52.944;9.098;2022-09-01T02:36:50;2.28;;;0.60;;
21107;SDS011;10712;52.944;9.098;2022-09-01T02:39:23;1.95;;;0.65;;
21107;SDS011;10712;52.944;9.098;2022-09-01T02:41:57;1.52;;;0.73;;
21107;SDS011;10712;52.944;9.098;2022-09-01T02:44:26;2.60;;;0.45;;
21107;SDS011;10712;52.944;9.098;2022-09-01T02:46:56;1.08;;;0.63;;
21107;SDS011;10712;52.944;9.098;2022-09-01T02:49:24;0.30;;;0.30;;
21107;SDS011;10712;52.944;9.098;2022-09-01T02:51:53;0.70;;;0.50;;
21107;SDS011;10712;52.944;9.098;2022-09-01T02:54:23;0.85;;;0.50;;
21107;SDS011;10712;52.944;9.098;2022-09-01T02:56:50;0.50;;;0.50;;
21107;SDS011;10712;52.944;9.098;2022-09-01T02:59:20;0.30;;;0.30;;
21107;SDS011;10712;52.944;9.098;2022-09-01T03:01:51;0.60;;;0.60;;
21107;SDS011;10712;52.944;9.098;2022-09-01T03:04:19;1.25;;;0.70;;
21107;SDS011;10712;52.944;9.098;2022-09-01T03:06:47;1.25;;;0.70;;
21107;SDS011;10712;52.944;9.098;2022-09-01T03:09:15;1.55;;;0.77;;
21107;SDS011;10712;52.944;9.098;2022-09-01T03:11:45;0.40;;;0.40;;
21107;SDS011;10712;52.944;9.098;2022-09-01T03:16:42;0.40;;;0.40;;
21107;SDS011;10712;52.944;9.098;2022-09-01T03:19:09;0.80;;;0.45;;
21107;SDS011;10712;52.944;9.098;2022-09-01T03:21:38;0.65;;;0.65;;
21107;SDS011;10712;52.944;9.098;2022-09-01T03:24:07;0.73;;;0.40;;
21107;SDS011;10712;52.944;9.098;2022-09-01T03:26:36;2.83;;;0.80;;
21107;SDS011;10712;52.944;9.098;2022-09-01T03:29:03;1.58;;;0.40;;
21107;SDS011;10712;52.944;9.098;2022-09-01T03:31:29;1.00;;;0.90;;
21107;SDS011;10712;52.944;9.098;2022-09-01T03:33:57;0.43;;;0.43;;
21107;SDS011;10712;52.944;9.098;2022-09-01T03:36:29;0.65;;;0.63;;
21107;SDS011;10712;52.944;9.098;2022-09-01T03:38:58;0.52;;;0.52;;
21107;SDS011;10712;52.944;9.098;2022-09-01T03:41:27;0.65;;;0.65;;
21107;SDS011;10712;52.944;9.098;2022-09-01T03:43:55;0.55;;;0.52;;
21107;SDS011;10712;52.944;9.098;2022-09-01T03:46:25;1.17;;;0.68;;
21107;SDS011;10712;52.944;9.098;2022-09-01T03:48:55;0.65;;;0.50;;
21107;SDS011;10712;52.944;9.098;2022-09-01T03:51:28;0.80;;;0.60;;
21107;SDS011;10712;52.944;9.098;2022-09-01T03:53:55;1.23;;;0.88;;
21107;SDS011;10712;52.944;9.098;2022-09-01T03:56:22;0.60;;;0.60;;
21107;SDS011;10712;52.944;9.098;2022-09-01T03:58:51;0.68;;;0.52;;
21107;SDS011;10712;52.944;9.098;2022-09-01T04:01:20;0.75;;;0.50;;
21107;SDS011;10712;52.944;9.098;2022-09-01T04:03:47;1.33;;;0.80;;
21107;SDS011;10712;52.944;9.098;2022-09-01T04:06:16;0.80;;;0.57;;
21107;SDS011;10712;52.944;9.098;2022-09-01T04:08:45;0.52;;;0.52;;
21107;SDS011;10712;52.944;9.098;2022-09-01T04:11:16;0.60;;;0.43;;
21107;SDS011;10712;52.944;9.098;2022-09-01T04:13:46;0.40;;;0.40;;
21107;SDS011;10712;52.944;9.098;2022-09-01T04:16:16;0.60;;;0.60;;
21107;SDS011;10712;52.944;9.098;2022-09-01T04:19:13;1.02;;;0.68;;
21107;SDS011;10712;52.944;9.098;2022-09-01T04:21:50;1.92;;;0.75;;
21107;SDS011;10712;52.944;9.098;2022-09-01T04:24:21;1.27;;;0.98;;
21107;SDS011;10712;52.944;9.098;2022-09-01T04:26:49;1.35;;;0.40;;
21107;SDS011;10712;52.944;9.098;2022-09-01T04:29:17;3.42;;;0.60;;
21107;SDS011;10712;52.944;9.098;2022-09-01T04:31:52;1.00;;;0.90;;
21107;SDS011;10712;52.944;9.098;2022-09-01T04:34:30;0.77;;;0.60;;
21107;SDS011;10712;52.944;9.098;2022-09-01T04:37:11;0.95;;;0.75;;
21107;SDS011;10712;52.944;9.098;2022-09-01T04:39:46;0.98;;;0.60;;
21107;SDS011;10712;52.944;9.098;2022-09-01T04:42:16;3.58;;;0.80;;
21107;SDS011;10712;52.944;9.098;2022-09-01T04:44:45;1.73;;;0.88;;
21107;SDS011;10712;52.944;9.098;2022-09-01T04:47:12;0.80;;;0.60;;
21107;SDS011;10712;52.944;9.098;2022-09-01T04:49:44;0.93;;;0.80;;
21107;SDS011;10712;52.944;9.098;2022-09-01T04:52:13;0.70;;;0.60;;
21107;SDS011;10712;52.944;9.098;2022-09-01T04:54:39;2.65;;;0.70;;
21107;SDS011;10712;52.944;9.098;2022-09-01T04:57:05;0.60;;;0.60;;
21107;SDS011;10712;52.944;9.098;2022-09-01T04:59:35;0.70;;;0.57;;
21107;SDS011;10712;52.944;9.098;2022-09-01T05:02:01;3.40;;;0.80;;
21107;SDS011;10712;52.944;9.098;2022-09-01T05:04:32;1.20;;;0.80;;
21107;SDS011;10712;52.944;9.098;2022-09-01T05:06:59;1.58;;;0.60;;
21107;SDS011;10712;52.944;9.098;2022-09-01T05:09:33;1.13;;;0.85;;
21107;SDS011;10712;52.944;9.098;2022-09-01T05:12:10;0.70;;;0.70;;
21107;SDS011;10712;52.944;9.098;2022-09-01T05:14:40;1.85;;;0.95;;
21107;SDS011;10712;52.944;9.098;2022-09-01T05:17:09;1.00;;;0.80;;
21107;SDS011;10712;52.944;9.098;2022-09-01T05:19:37;4.03;;;0.82;;
21107;SDS011;10712;52.944;9.098;2022-09-01T05:22:08;2.13;;;1.10;;
21107;SDS011;10712;52.944;9.098;2022-09-01T05:24:38;0.60;;;0.60;;
21107;SDS011;10712;52.944;9.098;2022-09-01T05:27:06;1.10;;;0.77;;
21107;SDS011;10712;52.944;9.098;2022-09-01T05:29:35;0.57;;;0.50;;
21107;SDS011;10712;52.944;9.098;2022-09-01T05:32:04;0.82;;;0.80;;
21107;SDS011;10712;52.944;9.098;2022-09-01T05:34:35;2.78;;;1.00;;
21107;SDS011;10712;52.944;9.098;2022-09-01T05:37:03;1.42;;;0.90;;
21107;SDS011;10712;52.944;9.098;2022-09-01T05:39:32;1.33;;;1.23;;
21107;SDS011;10712;52.944;9.098;2022-09-01T05:42:00;0.88;;;0.88;;
21107;SDS011;10712;52.944;9.098;2022-09-01T05:44:32;1.30;;;1.20;;
21107;SDS011;10712;52.944;9.098;2022-09-01T05:46:59;1.85;;;1.20;;
21107;SDS011;10712;52.944;9.098;2022-09-01T05:49:27;2.67;;;1.10;;
21107;SDS011;10712;52.944;9.098;2022-09-01T05:51:57;1.65;;;1.30;;
21107;SDS011;10712;52.944;9.098;2022-09-01T05:54:25;1.35;;;1.20;;
21107;SDS011;10712;52.944;9.098;2022-09-01T05:56:54;5.50;;;1.65;;
21107;SDS011;10712;52.944;9.098;2022-09-01T05:59:26;3.10;;;1.35;;
21107;SDS011;10712;52.944;9.098;2022-09-01T06:02:09;4.53;;;1.63;;
21107;SDS011;10712;52.944;9.098;2022-09-01T06:04:36;2.38;;;1.40;;
21107;SDS011;10712;52.944;9.098;2022-09-01T06:07:12;2.00;;;1.45;;
21107;SDS011;10712;52.944;9.098;2022-09-01T06:09:45;3.43;;;1.80;;
21107;SDS011;10712;52.944;9.098;2022-09-01T06:12:15;3.63;;;1.35;;
21107;SDS011;10712;52.944;9.098;2022-09-01T06:14:43;2.08;;;1.25;;
21107;SDS011;10712;52.944;9.098;2022-09-01T06:17:15;1.97;;;1.20;;
21107;SDS011;10712;52.944;9.098;2022-09-01T06:19:46;2.80;;;1.27;;
21107;SDS011;10712;52.944;9.098;2022-09-01T06:22:13;1.63;;;1.15;;
21107;SDS011;10712;52.944;9.098;2022-09-01T06:24:39;1.90;;;1.35;;
21107;SDS011;10712;52.944;9.098;2022-09-01T06:27:07;4.00;;;1.13;;
21107;SDS011;10712;52.944;9.098;2022-09-01T06:29:34;2.22;;;1.00;;
21107;SDS011;10712;52.944;9.098;2022-09-01T06:32:05;2.25;;;1.00;;
21107;SDS011;10712;52.944;9.098;2022-09-01T06:34:34;2.35;;;1.27;;
21107;SDS011;10712;52.944;9.098;2022-09-01T06:37:11;1.98;;;1.10;;
21107;SDS011;10712;52.944;9.098;2022-09-01T06:39:38;1.10;;;0.77;;
21107;SDS011;10712;52.944;9.098;2022-09-01T06:42:04;1.50;;;1.00;;
21107;SDS011;10712;52.944;9.098;2022-09-01T06:44:41;2.47;;;0.85;;
21107;SDS011;10712;52.944;9.098;2022-09-01T06:47:07;1.30;;;0.88;;
21107;SDS011;10712;52.944;9.098;2022-09-01T06:49:33;2.78;;;0.70;;
21107;SDS011;10712;52.944;9.098;2022-09-01T06:52:04;0.80;;;0.73;;
21107;SDS011;10712;52.944;9.098;2022-09-01T06:54:31;1.87;;;1.00;;
21107;SDS011;10712;52.944;9.098;2022-09-01T06:57:01;0.88;;;0.63;;
21107;SDS011;10712;52.944;9.098;2022-09-01T06:59:29;1.50;;;0.70;;
21107;SDS011;10712;52.944;9.098;2022-09-01T07:01:57;1.40;;;0.80;;
21107;SDS011;10712;52.944;9.098;2022-09-01T07:04:33;2.50;;;0.80;;
21107;SDS011;10712;52.944;9.098;2022-09-01T07:07:03;2.08;;;0.77;;
21107;SDS011;10712;52.944;9.098;2022-09-01T07:09:31;2.80;;;0.40;;
21107;SDS011;10712;52.944;9.098;2022-09-01T07:12:19;0.82;;;0.70;;
21107;SDS011;10712;52.944;9.098;2022-09-01T07:14:48;1.38;;;0.70;;
21107;SDS011;10712;52.944;9.098;2022-09-01T07:17:14;1.90;;;0.60;;
21107;SDS011;10712;52.944;9.098;2022-09-01T07:19:41;0.88;;;0.63;;
21107;SDS011;10712;52.944;9.098;2022-09-01T07:22:07;2.28;;;0.90;;
21107;SDS011;10712;52.944;9.098;2022-09-01T07:24:36;2.20;;;0.40;;
21107;SDS011;10712;52.944;9.098;2022-09-01T07:27:25;4.30;;;0.68;;
21107;SDS011;10712;52.944;9.098;2022-09-01T07:29:53;0.50;;;0.50;;
21107;SDS011;10712;52.944;9.098;2022-09-01T07:32:21;0.57;;;0.50;;
21107;SDS011;10712;52.944;9.098;2022-09-01T07:34:47;2.42;;;0.50;;
21107;SDS011;10712;52.944;9.098;2022-09-01T07:37:15;1.63;;;0.47;;
21107;SDS011;10712;52.944;9.098;2022-09-01T07:39:48;2.80;;;0.73;;
21107;SDS011;10712;52.944;9.098;2022-09-01T07:42:40;0.75;;;0.65;;
21107;SDS011;10712;52.944;9.098;2022-09-01T07:45:25;2.30;;;0.47;;
21107;SDS011;10712;52.944;9.098;2022-09-01T07:47:55;1.75;;;0.38;;
21107;SDS011;10712;52.944;9.098;2022-09-01T07:50:29;1.30;;;0.60;;
21107;SDS011;10712;52.944;9.098;2022-09-01T07:52:55;0.73;;;0.57;;
21107;SDS011;10712;52.944;9.098;2022-09-01T07:55:22;2.25;;;0.50;;
21107;SDS011;10712;52.944;9.098;2022-09-01T07:57:48;0.75;;;0.35;;
21107;SDS011;10712;52.944;9.098;2022-09-01T08:00:15;0.38;;;0.32;;
21107;SDS011;10712;52.944;9.098;2022-09-01T08:02:47;1.00;;;0.65;;
21107;SDS011;10712;52.944;9.098;2022-09-01T08:05:16;1.50;;;0.50;;
21107;SDS011;10712;52.944;9.098;2022-09-01T08:07:47;1.38;;;0.45;;
21107;SDS011;10712;52.944;9.098;2022-09-01T08:10:14;1.30;;;0.38;;
21107;SDS011;10712;52.944;9.098;2022-09-01T08:12:41;0.50;;;0.50;;
21107;SDS011;10712;52.944;9.098;2022-09-01T08:15:08;0.77;;;0.50;;
21107;SDS011;10712;52.944;9.098;2022-09-01T08:17:36;1.23;;;0.30;;
21107;SDS011;10712;52.944;9.098;2022-09-01T08:20:08;1.45;;;0.50;;
21107;SDS011;10712;52.944;9.098;2022-09-01T08:22:56;1.17;;;0.47;;
21107;SDS011;10712;52.944;9.098;2022-09-01T08:25:24;3.28;;;0.40;;
21107;SDS011;10712;52.944;9.098;2022-09-01T08:27:52;1.17;;;0.50;;
21107;SDS011;10712;52.944;9.098;2022-09-01T08:30:18;1.35;;;0.40;;
21107;SDS011;10712;52.944;9.098;2022-09-01T08:32:44;0.47;;;0.30;;
21107;SDS011;10712;52.944;9.098;2022-09-01T08:35:11;0.55;;;0.30;;
21107;SDS011;10712;52.944;9.098;2022-09-01T08:37:41;2.08;;;0.40;;
21107;SDS011;10712;52.944;9.098;2022-09-01T08:40:11;0.57;;;0.40;;
21107;SDS011;10712;52.944;9.098;2022-09-01T08:51:05;1.10;;;0.50;;
21107;SDS011;10712;52.944;9.098;2022-09-01T08:56:45;0.60;;;0.38;;
21107;SDS011;10712;52.944;9.098;2022-09-01T08:59:17;0.80;;;0.40;;
21107;SDS011;10712;52.944;9.098;2022-09-01T09:17:08;1.45;;;0.57;;
21107;SDS011;10712;52.944;9.098;2022-09-01T09:19:40;0.30;;;0.10;;
21107;SDS011;10712;52.944;9.098;2022-09-01T09:22:09;1.15;;;0.82;;
21107;SDS011;10712;52.944;9.098;2022-09-01T09:24:43;1.45;;;0.22;;
21107;SDS011;10712;52.944;9.098;2022-09-01T09:38:33;0.40;;;0.25;;
21107;SDS011;10712;52.944;9.098;2022-09-01T09:46:50;0.82;;;0.38;;
21107;SDS011;10712;52.944;9.098;2022-09-01T09:51:52;0.57;;;0.30;;
21107;SDS011;10712;52.944;9.098;2022-09-01T09:54:38;0.40;;;0.33;;
21107;SDS011;10712;52.944;9.098;2022-09-01T09:57:46;0.30;;;0.20;;
21107;SDS011;10712;52.944;9.098;2022-09-01T10:00:20;0.50;;;0.35;;
21107;SDS011;10712;52.944;9.098;2022-09-01T10:02:53;0.30;;;0.30;;
21107;SDS011;10712;52.944;9.098;2022-09-01T10:08:14;1.88;;;0.32;;
21107;SDS011;10712;52.944;9.098;2022-09-01T10:11:09;1.25;;;0.30;;
21107;SDS011;10712;52.944;9.098;2022-09-01T10:13:51;1.40;;;0.45;;
21107;SDS011;10712;52.944;9.098;2022-09-01T10:16:21;1.48;;;0.30;;
21107;SDS011;10712;52.944;9.098;2022-09-01T10:19:01;0.47;;;0.40;;
21107;SDS011;10712;52.944;9.098;2022-09-01T10:21:34;0.63;;;0.52;;
21107;SDS011;10712;52.944;9.098;2022-09-01T10:24:17;0.52;;;0.52;;
21107;SDS011;10712;52.944;9.098;2022-09-01T10:26:55;1.63;;;0.88;;
21107;SDS011;10712;52.944;9.098;2022-09-01T10:29:30;2.65;;;0.57;;
21107;SDS011;10712;52.944;9.098;2022-09-01T10:32:28;1.65;;;0.60;;
21107;SDS011;10712;52.944;9.098;2022-09-01T10:35:07;0.55;;;0.30;;
21107;SDS011;10712;52.944;9.098;2022-09-01T10:37:59;0.40;;;0.30;;
21107;SDS011;10712;52.944;9.098;2022-09-01T10:40:35;0.43;;;0.40;;
21107;SDS011;10712;52.944;9.098;2022-09-01T10:46:51;1.38;;;0.40;;
21107;SDS011;10712;52.944;9.098;2022-09-01T10:48:53;0.60;;;0.50;;
21107;SDS011;10712;52.944;9.098;2022-09-01T10:53:52;0.55;;;0.30;;
21107;SDS011;10712;52.944;9.098;2022-09-01T11:06:59;2.33;;;0.40;;
21107;SDS011;10712;52.944;9.098;2022-09-01T11:09:46;1.27;;;0.28;;
21107;SDS011;10712;52.944;9.098;2022-09-01T11:13:00;1.65;;;0.22;;
21107;SDS011;10712;52.944;9.098;2022-09-01T11:15:45;0.98;;;0.20;;
21107;SDS011;10712;52.944;9.098;2022-09-01T11:18:14;1.75;;;0.30;;
21107;SDS011;10712;52.944;9.098;2022-09-01T11:20:50;0.38;;;0.38;;
21107;SDS011;10712;52.944;9.098;2022-09-01T11:23:23;0.70;;;0.15;;
21107;SDS011;10712;52.944;9.098;2022-09-01T11:26:00;0.50;;;0.25;;
21107;SDS011;10712;52.944;9.098;2022-09-01T11:28:55;0.73;;;0.30;;
21107;SDS011;10712;52.944;9.098;2022-09-01T11:31:25;0.73;;;0.30;;
21107;SDS011;10712;52.944;9.098;2022-09-01T11:33:58;1.40;;;0.43;;
21107;SDS011;10712;52.944;9.098;2022-09-01T11:44:40;0.60;;;0.40;;
21107;SDS011;10712;52.944;9.098;2022-09-01T11:52:25;0.52;;;0.25;;
21107;SDS011;10712;52.944;9.098;2022-09-01T11:54:54;0.57;;;0.40;;
21107;SDS011;10712;52.944;9.098;2022-09-01T11:59:51;2.58;;;0.70;;
21107;SDS011;10712;52.944;9.098;2022-09-01T12:02:22;2.38;;;0.70;;
21107;SDS011;10712;52.944;9.098;2022-09-01T12:04:58;1.40;;;0.60;;
21107;SDS011;10712;52.944;9.098;2022-09-01T12:07:29;0.57;;;0.43;;
21107;SDS011;10712;52.944;9.098;2022-09-01T12:10:46;1.13;;;0.50;;
21107;SDS011;10712;52.944;9.098;2022-09-01T12:15:35;1.23;;;0.90;;
21107;SDS011;10712;52.944;9.098;2022-09-01T12:18:20;0.90;;;0.80;;
21107;SDS011;10712;52.944;9.098;2022-09-01T12:20:54;0.77;;;0.75;;
21107;SDS011;10712;52.944;9.098;2022-09-01T12:23:25;2.00;;;1.02;;
21107;SDS011;10712;52.944;9.098;2022-09-01T12:25:58;1.77;;;0.90;;
21107;SDS011;10712;52.944;9.098;2022-09-01T12:28:38;1.25;;;1.10;;
21107;SDS011;10712;52.944;9.098;2022-09-01T12:31:07;1.77;;;1.10;;
21107;SDS011;10712;52.944;9.098;2022-09-01T12:33:41;1.48;;;1.10;;
21107;SDS011;10712;52.944;9.098;2022-09-01T12:36:18;1.33;;;0.93;;
21107;SDS011;10712;52.944;9.098;2022-09-01T12:38:54;3.05;;;1.20;;
21107;SDS011;10712;52.944;9.098;2022-09-01T12:41:47;1.83;;;1.35;;
21107;SDS011;10712;52.944;9.098;2022-09-01T12:44:29;1.42;;;1.10;;
21107;SDS011;10712;52.944;9.098;2022-09-01T12:47:05;1.58;;;1.08;;
21107;SDS011;10712;52.944;9.098;2022-09-01T12:49:37;2.05;;;1.63;;
21107;SDS011;10712;52.944;9.098;2022-09-01T12:54:53;1.00;;;0.90;;
21107;SDS011;10712;52.944;9.098;2022-09-01T12:57:39;1.05;;;0.93;;
21107;SDS011;10712;52.944;9.098;2022-09-01T13:02:51;1.55;;;1.13;;
21107;SDS011;10712;52.944;9.098;2022-09-01T13:05:44;0.88;;;0.88;;
21107;SDS011;10712;52.944;9.098;2022-09-01T13:10:45;2.60;;;0.95;;
21107;SDS011;10712;52.944;9.098;2022-09-01T13:13:17;1.05;;;0.70;;
21107;SDS011;10712;52.944;9.098;2022-09-01T13:15:52;1.63;;;0.50;;
21107;SDS011;10712;52.944;9.098;2022-09-01T13:18:26;1.65;;;0.90;;
21107;SDS011;10712;52.944;9.098;2022-09-01T13:20:53;0.88;;;0.70;;
21107;SDS011;10712;52.944;9.098;2022-09-01T13:23:21;0.40;;;0.40;;
21107;SDS011;10712;52.944;9.098;2022-09-01T13:25:47;0.90;;;0.57;;
21107;SDS011;10712;52.944;9.098;2022-09-01T13:28:14;1.05;;;0.35;;
21107;SDS011;10712;52.944;9.098;2022-09-01T13:30:42;2.47;;;0.45;;
21107;SDS011;10712;52.944;9.098;2022-09-01T13:33:19;0.40;;;0.30;;
21107;SDS011;10712;52.944;9.098;2022-09-01T13:35:45;0.40;;;0.40;;
21107;SDS011;10712;52.944;9.098;2022-09-01T13:38:11;0.40;;;0.40;;
21107;SDS011;10712;52.944;9.098;2022-09-01T13:40:40;1.55;;;0.40;;
21107;SDS011;10712;52.944;9.098;2022-09-01T13:43:07;1.13;;;0.30;;
21107;SDS011;10712;52.944;9.098;2022-09-01T13:45:33;0.57;;;0.30;;
21107;SDS011;10712;52.944;9.098;2022-09-01T13:47:59;2.63;;;0.50;;
21107;SDS011;10712;52.944;9.098;2022-09-01T13:50:27;0.75;;;0.30;;
21107;SDS011;10712;52.944;9.098;2022-09-01T13:52:54;1.30;;;0.68;;
21107;SDS011;10712;52.944;9.098;2022-09-01T13:55:23;2.63;;;0.65;;
21107;SDS011;10712;52.944;9.098;2022-09-01T13:57:55;1.42;;;0.55;;
21107;SDS011;10712;52.944;9.098;2022-09-01T14:00:24;0.88;;;0.50;;
21107;SDS011;10712;52.944;9.098;2022-09-01T14:02:54;0.40;;;0.40;;
21107;SDS011;10712;52.944;9.098;2022-09-01T14:05:29;0.63;;;0.43;;
21107;SDS011;10712;52.944;9.098;2022-09-01T14:07:58;0.32;;;0.30;;
21107;SDS011;10712;52.944;9.098;2022-09-01T14:10:26;0.57;;;0.47;;
21107;SDS011;10712;52.944;9.098;2022-09-01T14:12:56;0.47;;;0.30;;
21107;SDS011;10712;52.944;9.098;2022-09-01T14:15:24;0.68;;;0.40;;
21107;SDS011;10712;52.944;9.098;2022-09-01T14:17:51;2.47;;;0.50;;
21107;SDS011;10712;52.944;9.098;2022-09-01T14:20:27;0.60;;;0.50;;
21107;SDS011;10712;52.944;9.098;2022-09-01T14:23:02;0.30;;;0.30;;
21107;SDS011;10712;52.944;9.098;2022-09-01T14:25:30;0.52;;;0.47;;
21107;SDS011;10712;52.944;9.098;2022-09-01T14:27:57;1.05;;;0.50;;
21107;SDS011;10712;52.944;9.098;2022-09-01T14:30:26;0.82;;;0.30;;
21107;SDS011;10712;52.944;9.098;2022-09-01T14:32:55;0.32;;;0.30;;
21107;SDS011;10712;52.944;9.098;2022-09-01T14:35:22;0.80;;;0.40;;
21107;SDS011;10712;52.944;9.098;2022-09-01T14:37:49;0.40;;;0.30;;
21107;SDS011;10712;52.944;9.098;2022-09-01T14:40:19;1.02;;;0.57;;
21107;SDS011;10712;52.944;9.098;2022-09-01T14:42:48;1.85;;;0.43;;
21107;SDS011;10712;52.944;9.098;2022-09-01T14:45:21;0.35;;;0.30;;
21107;SDS011;10712;52.944;9.098;2022-09-01T14:47:51;2.25;;;0.30;;
21107;SDS011;10712;52.944;9.098;2022-09-01T14:50:20;0.20;;;0.20;;
21107;SDS011;10712;52.944;9.098;2022-09-01T14:52:53;0.38;;;0.30;;
21107;SDS011;10712;52.944;9.098;2022-09-01T14:55:21;0.30;;;0.20;;
21107;SDS011;10712;52.944;9.098;2022-09-01T14:57:50;0.85;;;0.30;;
21107;SDS011;10712;52.944;9.098;2022-09-01T15:00:17;2.20;;;0.20;;
21107;SDS011;10712;52.944;9.098;2022-09-01T15:02:43;0.73;;;0.20;;
21107;SDS011;10712;52.944;9.098;2022-09-01T15:05:10;1.90;;;0.50;;
21107;SDS011;10712;52.944;9.098;2022-09-01T15:07:37;0.30;;;0.30;;
21107;SDS011;10712;52.944;9.098;2022-09-01T15:10:05;0.30;;;0.30;;
21107;SDS011;10712;52.944;9.098;2022-09-01T15:12:34;1.15;;;0.40;;
21107;SDS011;10712;52.944;9.098;2022-09-01T15:15:03;1.17;;;0.75;;
21107;SDS011;10712;52.944;9.098;2022-09-01T15:17:31;0.60;;;0.38;;
21107;SDS011;10712;52.944;9.098;2022-09-01T15:19:59;0.52;;;0.40;;
21107;SDS011;10712;52.944;9.098;2022-09-01T15:22:46;1.40;;;0.50;;
21107;SDS011;10712;52.944;9.098;2022-09-01T15:25:14;0.60;;;0.32;;
21107;SDS011;10712;52.944;9.098;2022-09-01T15:27:41;0.60;;;0.40;;
21107;SDS011;10712;52.944;9.098;2022-09-01T15:30:07;0.20;;;0.20;;
21107;SDS011;10712;52.944;9.098;2022-09-01T15:32:41;2.17;;;0.30;;
21107;SDS011;10712;52.944;9.098;2022-09-01T15:35:09;0.40;;;0.25;;
21107;SDS011;10712;52.944;9.098;2022-09-01T15:37:35;2.08;;;0.40;;
21107;SDS011;10712;52.944;9.098;2022-09-01T15:40:02;8.30;;;0.70;;
21107;SDS011;10712;52.944;9.098;2022-09-01T15:42:31;0.43;;;0.25;;
21107;SDS011;10712;52.944;9.098;2022-09-01T15:44:59;0.95;;;0.40;;
21107;SDS011;10712;52.944;9.098;2022-09-01T15:47:28;0.90;;;0.50;;
21107;SDS011;10712;52.944;9.098;2022-09-01T15:49:55;0.40;;;0.40;;
21107;SDS011;10712;52.944;9.098;2022-09-01T15:52:21;0.52;;;0.52;;
21107;SDS011;10712;52.944;9.098;2022-09-01T15:54:47;0.40;;;0.30;;
21107;SDS011;10712;52.944;9.098;2022-09-01T15:57:13;1.25;;;0.40;;
21107;SDS011;10712;52.944;9.098;2022-09-01T15:59:39;0.40;;;0.20;;
21107;SDS011;10712;52.944;9.098;2022-09-01T16:02:07;1.23;;;0.40;;
21107;SDS011;10712;52.944;9.098;2022-09-01T16:04:34;0.30;;;0.22;;
21107;SDS011;10712;52.944;9.098;2022-09-01T16:07:00;0.50;;;0.45;;
21107;SDS011;10712;52.944;9.098;2022-09-01T16:09:27;2.15;;;0.60;;
21107;SDS011;10712;52.944;9.098;2022-09-01T16:11:53;0.80;;;0.30;;
21107;SDS011;10712;52.944;9.098;2022-09-01T16:14:19;0.63;;;0.43;;
21107;SDS011;10712;52.944;9.098;2022-09-01T16:25:24;4.57;;;0.30;;
21107;SDS011;10712;52.944;9.098;2022-09-01T16:27:56;1.30;;;0.63;;
21107;SDS011;10712;52.944;9.098;2022-09-01T16:30:28;0.30;;;0.30;;
21107;SDS011;10712;52.944;9.098;2022-09-01T16:32:57;1.00;;;0.32;;
21107;SDS011;10712;52.944;9.098;2022-09-01T16:35:39;0.85;;;0.22;;
21107;SDS011;10712;52.944;9.098;2022-09-01T16:38:16;1.05;;;0.40;;
21107;SDS011;10712;52.944;9.098;2022-09-01T16:41:04;0.65;;;0.47;;
21107;SDS011;10712;52.944;9.098;2022-09-01T16:43:55;1.48;;;0.22;;
21107;SDS011;10712;52.944;9.098;2022-09-01T16:46:42;0.35;;;0.30;;
21107;SDS011;10712;52.944;9.098;2022-09-01T16:52:31;0.75;;;0.40;;
21107;SDS011;10712;52.944;9.098;2022-09-01T16:58:41;0.32;;;0.30;;
21107;SDS011;10712;52.944;9.098;2022-09-01T17:06:56;0.40;;;0.30;;
21107;SDS011;10712;52.944;9.098;2022-09-01T17:12:21;0.20;;;0.20;;
21107;SDS011;10712;52.944;9.098;2022-09-01T17:17:45;2.35;;;0.30;;
21107;SDS011;10712;52.944;9.098;2022-09-01T17:20:22;1.95;;;0.90;;
21107;SDS011;10712;52.944;9.098;2022-09-01T17:22:55;0.68;;;0.50;;